createdAt,value
2023-03-23T15:59:43.489Z,12.60
2023-03-23T16:02:19.164Z,12.60
2023-03-23T16:04:48.052Z,12.60
2023-03-23T16:07:15.236Z,12.70
2023-03-23T16:09:42.450Z,12.70
2023-03-23T16:12:13.410Z,12.80
2023-03-23T16:14:41.429Z,12.70
2023-03-23T16:17:13.809Z,12.50
2023-03-23T16:19:58.504Z,12.40
2023-03-23T16:22:25.299Z,12.30
2023-03-23T16:24:52.127Z,12.30
2023-03-23T16:27:21.458Z,12.20
2023-03-23T16:30:03.158Z,12.20
2023-03-23T16:32:31.424Z,12.20
2023-03-23T16:34:58.178Z,12.20
2023-03-23T16:37:24.895Z,12.20
2023-03-23T16:39:51.841Z,12.10
2023-03-23T16:42:18.605Z,12.00
2023-03-23T16:44:46.090Z,11.90
2023-03-23T16:47:12.873Z,11.90
2023-03-23T16:49:39.545Z,11.90
2023-03-23T16:52:06.218Z,11.90
2023-03-23T16:54:32.908Z,11.90
2023-03-23T16:56:59.769Z,11.90
2023-03-23T16:59:28.482Z,11.80
2023-03-23T17:01:55.607Z,11.80
2023-03-23T17:04:22.359Z,11.90
2023-03-23T17:06:51.677Z,11.90
2023-03-23T17:09:43.587Z,12.00
2023-03-23T17:12:10.924Z,12.20
2023-03-23T17:14:37.704Z,12.20
2023-03-23T17:17:05.784Z,12.20
2023-03-23T17:19:32.494Z,12.00
2023-03-23T17:21:59.743Z,11.90
2023-03-23T17:24:27.180Z,11.80
2023-03-23T17:26:59.033Z,11.70
2023-03-23T17:29:26.988Z,11.70
2023-03-23T17:31:54.019Z,11.70
2023-03-23T17:34:21.024Z,11.60
2023-03-23T17:36:47.735Z,11.50
2023-03-23T17:39:14.591Z,11.50
2023-03-23T17:41:41.431Z,11.60
2023-03-23T17:44:08.316Z,11.60
2023-03-23T17:46:35.184Z,11.60
2023-03-23T17:49:08.122Z,11.50
2023-03-23T17:52:03.816Z,11.50
2023-03-23T17:54:32.531Z,11.50
2023-03-23T17:57:01.966Z,11.60
2023-03-23T17:59:32.178Z,11.60
2023-03-23T18:01:58.920Z,11.70
2023-03-23T18:04:27.023Z,11.70
2023-03-23T18:07:01.273Z,11.70
2023-03-23T18:09:31.248Z,11.70
2023-03-23T18:11:58.085Z,11.70
2023-03-23T18:14:24.872Z,11.70
2023-03-23T18:16:53.076Z,11.70
2023-03-23T18:19:22.553Z,11.80
2023-03-23T18:21:50.850Z,11.70
2023-03-23T18:24:17.709Z,11.70
2023-03-23T18:26:53.711Z,11.60
2023-03-23T18:29:20.601Z,11.60
2023-03-23T18:32:02.948Z,11.50
2023-03-23T18:35:20.851Z,11.50
2023-03-23T18:37:47.939Z,11.40
2023-03-23T18:40:19.832Z,11.40
2023-03-23T18:42:48.988Z,11.40
2023-03-23T18:45:20.156Z,11.40
2023-03-23T18:47:51.693Z,11.40
2023-03-23T18:51:38.673Z,11.30
2023-03-23T18:54:34.976Z,11.40
2023-03-23T18:57:03.268Z,11.30
2023-03-23T18:59:55.926Z,11.20
2023-03-23T19:02:52.064Z,11.20
2023-03-23T19:05:22.266Z,11.10
2023-03-23T19:07:55.358Z,11.00
2023-03-23T19:10:47.814Z,11.00
2023-03-23T19:13:17.327Z,11.00
2023-03-23T19:15:47.469Z,11.10
2023-03-23T19:18:14.321Z,11.00
2023-03-23T19:21:09.544Z,11.10
2023-03-23T19:23:32.476Z,11.20
2023-03-23T19:26:01.034Z,11.30
2023-03-23T19:29:24.581Z,11.40
2023-03-23T19:32:05.322Z,11.40
2023-03-23T19:34:33.658Z,11.50
2023-03-23T19:37:05.792Z,11.40
2023-03-23T19:40:17.331Z,11.40
2023-03-23T19:42:51.075Z,11.30
2023-03-23T19:45:18.039Z,11.20
2023-03-23T19:47:45.375Z,11.10
2023-03-23T19:50:12.469Z,11.00
2023-03-23T19:52:42.096Z,10.90
2023-03-23T19:55:11.532Z,10.90
2023-03-23T19:57:45.870Z,10.90
2023-03-23T20:00:14.674Z,10.80
2023-03-23T20:02:41.720Z,10.80
2023-03-23T20:05:12.652Z,10.80
2023-03-23T20:07:55.598Z,10.80
2023-03-23T20:10:24.145Z,11.00
2023-03-23T20:12:50.897Z,11.10
2023-03-23T20:15:30.346Z,11.20
2023-03-23T20:18:03.412Z,11.30
2023-03-23T20:21:22.689Z,11.40
2023-03-23T20:24:14.974Z,11.40
2023-03-23T20:26:55.452Z,11.40
2023-03-23T20:29:25.719Z,11.40
2023-03-23T20:31:53.166Z,11.50
2023-03-23T20:34:30.821Z,11.50
2023-03-23T20:37:03.841Z,11.50
2023-03-23T20:39:34.020Z,11.40
2023-03-23T20:42:05.642Z,11.40
2023-03-23T20:44:36.044Z,11.30
2023-03-23T20:47:13.644Z,11.30
2023-03-23T20:49:44.076Z,11.20
2023-03-23T20:52:25.924Z,11.30
2023-03-23T20:54:54.913Z,11.20
2023-03-23T20:57:30.976Z,11.20
2023-03-23T21:00:02.562Z,11.30
2023-03-23T21:02:30.727Z,11.30
2023-03-23T21:05:06.367Z,11.40
2023-03-23T21:07:33.062Z,11.50
2023-03-23T21:10:00.001Z,11.40
2023-03-23T21:12:32.960Z,11.40
2023-03-23T21:15:03.758Z,11.40
2023-03-23T21:17:30.550Z,11.40
2023-03-23T21:20:12.341Z,11.40
2023-03-23T21:22:42.264Z,11.40
2023-03-23T21:26:12.698Z,11.30
2023-03-23T21:28:39.481Z,11.40
2023-03-23T21:31:07.486Z,11.40
2023-03-23T21:33:35.069Z,11.40
2023-03-23T21:36:31.315Z,11.30
2023-03-23T21:39:52.405Z,11.30
2023-03-23T21:43:13.142Z,11.30
2023-03-23T21:46:06.798Z,11.40
2023-03-23T21:48:38.559Z,11.50
2023-03-23T21:52:10.921Z,11.50
2023-03-23T21:55:43.559Z,11.50
2023-03-23T21:59:17.284Z,11.50
2023-03-23T22:02:34.031Z,11.50
2023-03-23T22:05:01.012Z,11.60
2023-03-23T22:07:33.152Z,11.60
2023-03-23T22:10:22.628Z,11.50
2023-03-23T22:13:21.805Z,11.50
2023-03-23T22:15:50.443Z,11.60
2023-03-23T22:18:17.656Z,11.70
2023-03-23T22:21:03.217Z,11.70
2023-03-23T22:23:31.091Z,11.60
2023-03-23T22:26:12.152Z,11.70
2023-03-23T22:29:11.530Z,11.80
2023-03-23T22:32:09.288Z,11.80
2023-03-23T22:34:36.051Z,11.80
2023-03-23T22:37:05.533Z,11.80
2023-03-23T22:39:35.436Z,11.80
2023-03-23T22:42:33.219Z,11.90
2023-03-23T22:45:02.671Z,11.90
2023-03-23T22:47:29.831Z,11.90
2023-03-23T22:50:01.187Z,11.90
2023-03-23T22:52:33.277Z,12.00
2023-03-23T22:54:59.952Z,12.00
2023-03-23T22:57:26.787Z,12.10
2023-03-23T23:00:20.684Z,12.10
2023-03-23T23:03:16.924Z,12.20
2023-03-23T23:06:03.822Z,12.20
2023-03-23T23:08:33.824Z,12.10
2023-03-23T23:11:12.029Z,12.10
2023-03-23T23:13:59.077Z,12.20
2023-03-23T23:16:27.625Z,12.20
2023-03-23T23:18:54.887Z,12.20
2023-03-23T23:21:25.163Z,12.20
2023-03-23T23:23:52.097Z,12.20
2023-03-23T23:26:19.771Z,12.30
2023-03-23T23:28:48.559Z,12.20
2023-03-23T23:31:26.196Z,12.20
2023-03-23T23:33:55.818Z,12.20
2023-03-23T23:36:23.066Z,12.10
2023-03-23T23:38:49.911Z,11.90
2023-03-23T23:41:16.636Z,11.80
2023-03-23T23:43:43.398Z,11.60
2023-03-23T23:46:10.596Z,11.50
2023-03-23T23:48:37.485Z,11.40
2023-03-23T23:51:04.800Z,11.30
2023-03-23T23:53:31.918Z,11.20
2023-03-23T23:56:04.070Z,11.20
2023-03-23T23:58:31.164Z,11.10
